createdAt,value
2022-12-01T00:09:45.322Z,6.5
2022-12-01T00:19:45.137Z,6.5
2022-12-01T00:29:45.360Z,6.5
2022-12-01T00:39:45.406Z,7
2022-12-01T00:49:45.355Z,6.5
2022-12-01T00:59:45.464Z,6.5
2022-12-01T01:09:45.295Z,6.5
2022-12-01T01:19:45.344Z,7
2022-12-01T01:29:45.296Z,7
2022-12-01T01:39:45.335Z,7
2022-12-01T01:49:45.308Z,7
2022-12-01T01:59:45.578Z,7
2022-12-01T02:09:45.608Z,6.5
2022-12-01T02:19:45.326Z,6.5
2022-12-01T02:29:45.533Z,6.5
2022-12-01T02:39:45.336Z,7
2022-12-01T02:49:45.629Z,7.5
2022-12-01T02:59:45.404Z,7.5
2022-12-01T03:09:45.392Z,7.5
2022-12-01T03:19:45.601Z,7.5
2022-12-01T03:29:45.472Z,8
2022-12-01T03:39:45.501Z,8
2022-12-01T03:49:45.433Z,8
2022-12-01T03:59:45.613Z,8
2022-12-01T04:09:45.387Z,8
2022-12-01T04:19:45.517Z,8
2022-12-01T04:29:45.388Z,8
2022-12-01T04:39:45.511Z,7.5
2022-12-01T04:49:45.375Z,7.5
2022-12-01T04:59:45.510Z,7.5
2022-12-01T05:09:45.572Z,7.5
2022-12-01T05:19:45.536Z,7.5
2022-12-01T05:29:45.579Z,7.5
2022-12-01T05:39:45.526Z,7.5
2022-12-01T05:49:45.562Z,7.5
2022-12-01T05:59:45.491Z,7.5
2022-12-01T06:09:45.556Z,7.5
2022-12-01T06:19:45.678Z,7.5
2022-12-01T06:29:45.564Z,7.5
2022-12-01T06:39:45.716Z,7.5
2022-12-01T06:49:45.540Z,7.5
2022-12-01T06:59:45.683Z,8
2022-12-01T07:09:45.538Z,7.5
2022-12-01T07:19:45.695Z,7.5
2022-12-01T07:29:45.530Z,8
2022-12-01T07:39:45.666Z,7.5
2022-12-01T07:49:45.750Z,8
2022-12-01T07:59:45.656Z,8
2022-12-01T08:09:45.781Z,8
2022-12-01T08:19:45.677Z,8
2022-12-01T08:29:45.750Z,8
2022-12-01T08:39:45.654Z,8
2022-12-01T08:49:45.738Z,8
2022-12-01T08:59:45.647Z,8
2022-12-01T09:09:45.844Z,8
2022-12-01T09:19:45.905Z,8
2022-12-01T09:29:45.704Z,9
2022-12-01T09:39:45.856Z,9
2022-12-01T09:49:45.699Z,9
2022-12-01T09:59:45.942Z,9
2022-12-01T10:09:45.716Z,9.5
2022-12-01T10:19:46.093Z,9.5
2022-12-01T10:29:47.671Z,10
2022-12-01T10:39:45.838Z,10
2022-12-01T10:49:45.915Z,10.5
2022-12-01T10:59:45.977Z,10.5
2022-12-01T11:09:45.921Z,10.5
2022-12-01T11:19:45.916Z,11
2022-12-01T11:29:45.960Z,10.5
2022-12-01T11:39:45.891Z,10.5
2022-12-01T11:49:47.406Z,10.5
2022-12-01T11:59:45.899Z,10.5
2022-12-01T12:09:46.056Z,10.5
2022-12-01T12:20:07.027Z,10.5
2022-12-01T12:29:45.965Z,10.5
2022-12-01T12:39:46.096Z,10.5
2022-12-01T12:49:45.922Z,10.5
2022-12-01T12:59:46.146Z,10.5
2022-12-01T13:09:46.002Z,10.5
2022-12-01T13:19:46.045Z,10
2022-12-01T13:29:46.087Z,10
2022-12-01T13:39:45.969Z,10
2022-12-01T13:49:46.041Z,10
2022-12-01T13:59:46.050Z,10
2022-12-01T14:09:45.987Z,9.5
2022-12-01T14:19:46.264Z,10
2022-12-01T14:29:45.966Z,9.5
2022-12-01T14:39:46.139Z,10
2022-12-01T14:49:46.168Z,9.5
2022-12-01T14:59:46.114Z,10
2022-12-01T15:09:46.172Z,9.5
2022-12-01T15:19:46.084Z,9.5
2022-12-01T15:29:46.172Z,9.5
2022-12-01T15:39:46.096Z,9.5
2022-12-01T15:49:46.151Z,9.5
2022-12-01T15:59:46.073Z,8.5
2022-12-01T16:09:46.165Z,8.5
2022-12-01T16:29:46.232Z,9
2022-12-01T16:39:46.128Z,9
2022-12-01T16:49:46.258Z,8.5
2022-12-01T16:59:46.199Z,8.5
2022-12-01T17:09:46.281Z,8.5
2022-12-01T17:19:46.122Z,8.5
2022-12-01T17:29:46.650Z,8.5
2022-12-01T17:39:46.313Z,7.5
2022-12-01T17:49:46.243Z,7.5
2022-12-01T17:59:46.296Z,7.5
2022-12-01T18:09:46.221Z,8
2022-12-01T18:19:46.319Z,8
2022-12-01T18:29:46.226Z,8
2022-12-01T18:39:46.294Z,8
2022-12-01T18:49:46.422Z,8
2022-12-01T18:59:46.344Z,8
2022-12-01T19:09:46.451Z,8
2022-12-01T19:19:46.326Z,8
2022-12-01T19:29:46.435Z,8
2022-12-01T19:39:46.322Z,8
2022-12-01T19:49:46.435Z,8
2022-12-01T19:59:46.306Z,7.5
2022-12-01T20:09:49.874Z,7.5
2022-12-01T20:19:46.301Z,8
2022-12-01T20:29:46.449Z,7.5
2022-12-01T20:39:46.329Z,7.5
2022-12-01T20:49:46.471Z,7.5
2022-12-01T20:59:46.538Z,7.5
2022-12-01T21:09:46.678Z,7.5
2022-12-01T21:19:46.578Z,7.5
2022-12-01T21:29:46.881Z,7.5
2022-12-01T21:39:46.610Z,7.5
2022-12-01T21:49:47.078Z,7.5
2022-12-01T21:59:46.512Z,7.5
2022-12-01T22:09:46.441Z,7.5
2022-12-01T22:19:46.517Z,7.5
2022-12-01T22:29:46.637Z,7.5
2022-12-01T22:39:46.502Z,6.5
2022-12-01T22:49:46.642Z,7
2022-12-01T22:59:46.507Z,7
2022-12-01T23:09:46.633Z,6.5
2022-12-01T23:19:46.491Z,6.5
2022-12-01T23:29:46.611Z,6.5
2022-12-01T23:39:46.495Z,6.5
2022-12-01T23:49:46.628Z,6.5
2022-12-01T23:59:46.703Z,6.5
